createdAt,value
2023-03-17T00:00:25.519Z,5.43
2023-03-17T00:03:32.030Z,6.07
2023-03-17T00:06:27.870Z,5.43
2023-03-17T00:09:17.013Z,5.13
2023-03-17T00:12:10.430Z,4.80
2023-03-17T00:14:57.229Z,5.80
2023-03-17T00:17:45.404Z,4.73
2023-03-17T00:20:32.993Z,4.57
2023-03-17T00:23:22.020Z,4.63
2023-03-17T00:26:09.985Z,6.03
2023-03-17T00:28:58.657Z,4.70
2023-03-17T00:31:45.723Z,4.77
2023-03-17T00:34:32.244Z,4.63
2023-03-17T00:37:18.430Z,6.07
2023-03-17T00:40:10.282Z,5.67
2023-03-17T00:42:58.141Z,5.03
2023-03-17T00:45:44.633Z,4.80
2023-03-17T00:48:31.036Z,5.07
2023-03-17T00:51:17.381Z,4.93
2023-03-17T00:54:04.002Z,5.30
2023-03-17T00:56:52.180Z,4.87
2023-03-17T00:59:42.348Z,4.97
2023-03-17T01:02:31.030Z,4.67
2023-03-17T01:05:20.132Z,4.50
2023-03-17T01:08:07.375Z,4.73
2023-03-17T01:10:54.651Z,5.37
2023-03-17T01:13:40.926Z,4.60
2023-03-17T01:16:28.135Z,4.23
2023-03-17T01:19:15.041Z,4.63
2023-03-17T01:22:01.710Z,4.80
2023-03-17T01:24:48.167Z,4.60
2023-03-17T01:27:36.470Z,4.93
2023-03-17T01:30:28.736Z,4.70
2023-03-17T01:33:15.731Z,4.33
2023-03-17T01:36:02.380Z,4.00
2023-03-17T01:38:50.692Z,5.40
2023-03-17T01:41:37.485Z,4.10
2023-03-17T01:44:25.618Z,4.60
2023-03-17T01:47:11.890Z,3.87
2023-03-17T01:50:05.162Z,4.00
2023-03-17T01:52:51.657Z,5.33
2023-03-17T01:55:38.530Z,3.90
2023-03-17T01:58:26.477Z,4.77
2023-03-17T02:01:14.143Z,3.67
2023-03-17T02:04:01.321Z,4.37
2023-03-17T02:06:58.106Z,4.10
2023-03-17T02:09:46.097Z,4.00
2023-03-17T02:12:35.542Z,3.97
2023-03-17T02:15:23.229Z,3.87
2023-03-17T02:18:12.488Z,3.90
2023-03-17T02:21:27.312Z,4.03
2023-03-17T02:24:30.912Z,4.00
2023-03-17T02:27:39.383Z,4.13
2023-03-17T02:30:26.102Z,3.93
2023-03-17T02:33:12.302Z,4.13
2023-03-17T02:35:58.806Z,4.60
2023-03-17T02:38:45.165Z,3.97
2023-03-17T02:41:31.707Z,3.43
2023-03-17T02:44:19.164Z,3.90
2023-03-17T02:47:07.338Z,4.30
2023-03-17T02:49:54.096Z,4.00
2023-03-17T02:52:40.404Z,3.93
2023-03-17T02:55:27.190Z,3.97
2023-03-17T02:58:13.576Z,4.33
2023-03-17T03:01:00.114Z,3.70
2023-03-17T03:03:47.298Z,3.90
2023-03-17T03:06:33.668Z,4.50
2023-03-17T03:09:20.844Z,3.63
2023-03-17T03:12:09.877Z,4.27
2023-03-17T03:14:56.325Z,3.50
2023-03-17T03:17:42.741Z,3.47
2023-03-17T03:20:29.570Z,4.03
2023-03-17T03:23:16.219Z,4.37
2023-03-17T03:26:02.581Z,4.50
2023-03-17T03:28:49.918Z,4.20
2023-03-17T03:31:36.190Z,4.47
2023-03-17T03:34:22.538Z,4.30
2023-03-17T03:37:08.851Z,4.30
2023-03-17T03:39:54.928Z,4.00
2023-03-17T03:42:41.259Z,4.50
2023-03-17T03:45:27.567Z,4.57
2023-03-17T03:48:14.149Z,4.80
2023-03-17T03:51:02.088Z,4.13
2023-03-17T03:53:48.664Z,4.17
2023-03-17T03:56:34.802Z,4.47
2023-03-17T03:59:20.929Z,5.10
2023-03-17T04:02:09.622Z,4.23
2023-03-17T04:04:56.246Z,4.53
2023-03-17T04:07:43.200Z,4.07
2023-03-17T04:10:30.082Z,4.07
2023-03-17T04:13:16.472Z,3.97
2023-03-17T04:16:03.235Z,4.60
2023-03-17T04:18:49.969Z,4.33
2023-03-17T04:21:36.889Z,4.20
2023-03-17T04:24:23.496Z,3.80
2023-03-17T04:27:10.448Z,4.23
2023-03-17T04:29:57.348Z,4.67
2023-03-17T04:32:44.759Z,4.30
2023-03-17T04:35:31.537Z,3.80
2023-03-17T04:38:18.092Z,4.03
2023-03-17T04:41:04.625Z,4.23
2023-03-17T04:43:51.235Z,3.73
2023-03-17T04:46:38.237Z,4.00
2023-03-17T04:49:24.922Z,3.70
2023-03-17T04:52:11.584Z,4.93
2023-03-17T04:54:57.888Z,4.37
2023-03-17T04:57:44.385Z,3.57
2023-03-17T05:00:31.411Z,3.93
2023-03-17T05:03:26.633Z,3.87
2023-03-17T05:06:13.913Z,3.93
2023-03-17T05:09:00.226Z,4.13
2023-03-17T05:11:46.890Z,4.03
2023-03-17T05:14:33.548Z,4.00
2023-03-17T05:17:20.648Z,4.30
2023-03-17T05:20:08.485Z,4.00
2023-03-17T05:22:55.013Z,4.57
2023-03-17T05:25:42.041Z,4.20
2023-03-17T05:28:28.742Z,4.03
2023-03-17T05:31:15.136Z,4.07
2023-03-17T05:34:01.334Z,3.87
2023-03-17T05:36:47.870Z,4.23
2023-03-17T05:39:34.449Z,4.87
2023-03-17T05:42:21.250Z,4.00
2023-03-17T05:45:08.354Z,3.27
2023-03-17T05:47:54.607Z,4.10
2023-03-17T05:50:41.777Z,3.80
2023-03-17T05:53:28.694Z,4.30
2023-03-17T05:56:15.901Z,3.67
2023-03-17T05:59:02.581Z,5.07
2023-03-17T06:01:49.167Z,4.60
2023-03-17T06:04:35.530Z,3.70
2023-03-17T06:07:21.885Z,3.50
2023-03-17T06:10:09.097Z,3.57
2023-03-17T06:12:55.595Z,3.97
2023-03-17T06:15:43.032Z,4.23
2023-03-17T06:18:29.477Z,4.03
2023-03-17T06:21:16.629Z,3.77
2023-03-17T06:24:03.403Z,4.87
2023-03-17T06:26:49.505Z,4.60
2023-03-17T06:29:36.517Z,4.13
2023-03-17T06:32:23.241Z,4.07
2023-03-17T06:35:09.772Z,4.10
2023-03-17T06:37:56.118Z,4.30
2023-03-17T06:40:42.396Z,4.03
2023-03-17T06:43:28.855Z,4.57
2023-03-17T06:46:15.107Z,4.20
2023-03-17T06:49:01.779Z,3.90
2023-03-17T06:51:48.308Z,3.93
2023-03-17T06:54:36.539Z,4.07
2023-03-17T06:57:22.880Z,4.47
2023-03-17T07:00:12.300Z,4.70
2023-03-17T07:02:58.534Z,5.00
2023-03-17T07:05:44.815Z,3.87
2023-03-17T07:08:31.348Z,3.87
2023-03-17T07:11:17.768Z,4.43
2023-03-17T07:14:04.261Z,4.10
2023-03-17T07:16:50.822Z,4.30
2023-03-17T07:19:37.405Z,3.93
2023-03-17T07:22:23.940Z,5.03
2023-03-17T07:25:10.891Z,4.73
2023-03-17T07:27:58.515Z,4.10
2023-03-17T07:30:46.976Z,4.23
2023-03-17T07:33:33.750Z,3.73
2023-03-17T07:36:20.380Z,4.10
2023-03-17T07:39:07.272Z,4.40
2023-03-17T07:41:55.260Z,4.03
2023-03-17T07:44:41.812Z,4.43
2023-03-17T07:47:28.255Z,4.20
2023-03-17T07:50:15.393Z,4.47
2023-03-17T07:53:03.185Z,5.30
2023-03-17T07:55:49.833Z,4.23
2023-03-17T07:58:36.006Z,4.30
2023-03-17T08:01:23.404Z,4.30
2023-03-17T08:04:12.538Z,4.63
2023-03-17T08:06:58.838Z,3.70
2023-03-17T08:09:45.311Z,3.80
2023-03-17T08:12:31.508Z,4.30
2023-03-17T08:15:18.728Z,3.47
2023-03-17T08:18:05.610Z,4.07
2023-03-17T08:20:52.032Z,3.47
2023-03-17T08:23:38.706Z,4.17
2023-03-17T08:26:25.480Z,4.40
2023-03-17T08:29:11.621Z,3.60
2023-03-17T08:31:58.422Z,4.03
2023-03-17T08:34:46.129Z,3.73
2023-03-17T08:37:32.664Z,3.37
2023-03-17T08:40:19.762Z,4.63
2023-03-17T08:43:07.636Z,3.90
2023-03-17T08:46:02.442Z,4.33
2023-03-17T08:48:51.032Z,3.60
2023-03-17T08:51:38.604Z,3.33
2023-03-17T08:54:25.113Z,3.43
2023-03-17T08:57:13.016Z,3.23
2023-03-17T09:00:01.696Z,3.07
2023-03-17T09:02:49.169Z,3.50
2023-03-17T09:05:38.440Z,3.57
2023-03-17T09:08:26.483Z,4.60
2023-03-17T09:11:18.781Z,3.63
2023-03-17T09:14:05.698Z,3.10
2023-03-17T09:16:52.529Z,3.30
2023-03-17T09:19:40.358Z,3.30
2023-03-17T09:22:26.983Z,2.97
2023-03-17T09:25:13.280Z,3.17
2023-03-17T09:28:00.418Z,2.53
2023-03-17T09:30:46.951Z,3.10
2023-03-17T09:33:33.396Z,3.20
2023-03-17T09:36:20.341Z,3.50
2023-03-17T09:39:07.408Z,3.10
2023-03-17T09:42:18.565Z,2.70
2023-03-17T09:45:24.144Z,4.07
2023-03-17T09:48:41.724Z,2.50
2023-03-17T09:51:29.958Z,3.40
2023-03-17T09:54:26.556Z,2.93
2023-03-17T09:57:22.026Z,2.53
2023-03-17T10:00:14.841Z,3.10
2023-03-17T10:03:01.900Z,2.30
2023-03-17T10:05:48.333Z,2.10
2023-03-17T10:08:41.503Z,2.50
2023-03-17T10:11:39.379Z,2.40
2023-03-17T10:14:56.475Z,2.10
2023-03-17T10:17:43.217Z,2.20
2023-03-17T10:20:35.939Z,2.10
2023-03-17T10:23:29.239Z,2.10
2023-03-17T10:26:41.769Z,2.23
2023-03-17T10:29:29.031Z,2.33
2023-03-17T10:32:15.984Z,2.33
2023-03-17T10:35:03.193Z,2.20
2023-03-17T10:37:49.776Z,2.40
2023-03-17T10:40:36.242Z,3.13
2023-03-17T10:43:23.349Z,2.87
2023-03-17T10:46:23.275Z,2.93
2023-03-17T10:49:16.581Z,2.60
2023-03-17T10:52:07.907Z,3.20
2023-03-17T10:54:54.574Z,3.57
2023-03-17T10:57:51.166Z,2.87
2023-03-17T11:00:38.515Z,4.30
2023-03-17T11:03:28.698Z,3.50
2023-03-17T11:06:19.103Z,3.13
2023-03-17T11:09:09.516Z,3.30
2023-03-17T11:12:03.822Z,3.50
2023-03-17T11:14:50.170Z,3.27
2023-03-17T11:17:43.277Z,3.50
2023-03-17T11:20:47.771Z,4.57
2023-03-17T11:23:47.068Z,3.20
2023-03-17T11:26:48.698Z,3.30
2023-03-17T11:30:14.928Z,3.60
2023-03-17T11:33:26.513Z,3.00
2023-03-17T11:36:18.621Z,3.30
2023-03-17T11:39:16.509Z,3.50
2023-03-17T11:42:21.471Z,3.50
2023-03-17T11:45:18.198Z,5.43
2023-03-17T11:48:17.419Z,3.20
2023-03-17T11:51:15.384Z,4.07
2023-03-17T11:54:17.402Z,3.60
2023-03-17T11:57:12.011Z,3.23
2023-03-17T11:59:58.156Z,3.20
2023-03-17T12:03:10.754Z,3.33
2023-03-17T12:06:02.096Z,3.20
2023-03-17T12:08:59.671Z,3.20
2023-03-17T12:11:47.550Z,3.57
2023-03-17T12:14:39.875Z,3.00
2023-03-17T12:17:48.791Z,3.10
2023-03-17T12:20:47.892Z,3.00
2023-03-17T12:23:50.619Z,2.80
2023-03-17T12:26:42.899Z,3.33
2023-03-17T12:29:32.519Z,2.70
2023-03-17T12:32:29.169Z,3.23
2023-03-17T12:35:35.008Z,3.20
2023-03-17T12:38:34.561Z,2.77
2023-03-17T12:41:33.784Z,2.87
2023-03-17T12:44:39.117Z,2.97
2023-03-17T12:47:49.322Z,2.60
2023-03-17T12:50:44.821Z,2.50
2023-03-17T12:53:34.336Z,3.23
2023-03-17T12:56:33.424Z,2.60
2023-03-17T12:59:24.486Z,2.57
2023-03-17T13:02:29.343Z,2.80
2023-03-17T13:05:19.499Z,3.00
2023-03-17T13:08:10.976Z,2.60
2023-03-17T13:11:26.127Z,2.63
2023-03-17T13:14:37.659Z,2.83
2023-03-17T13:17:25.543Z,2.50
2023-03-17T13:20:17.283Z,2.50
2023-03-17T13:23:16.233Z,2.47
2023-03-17T13:26:02.868Z,2.10
2023-03-17T13:28:52.576Z,2.10
2023-03-17T13:31:39.260Z,2.83
2023-03-17T13:34:28.919Z,2.30
2023-03-17T13:37:49.357Z,1.90
2023-03-17T13:41:11.371Z,1.90
2023-03-17T13:44:35.781Z,2.00
2023-03-17T13:47:22.588Z,2.20
2023-03-17T13:50:21.314Z,2.30
2023-03-17T13:53:11.708Z,1.97
2023-03-17T14:05:31.518Z,1.87
2023-03-17T14:08:27.401Z,1.67
2023-03-17T14:11:22.600Z,1.83
2023-03-17T14:14:32.811Z,1.70
2023-03-17T14:17:28.862Z,1.50
2023-03-17T14:20:15.613Z,1.50
2023-03-17T14:23:04.032Z,1.60
2023-03-17T14:25:51.473Z,1.33
2023-03-17T14:28:38.223Z,1.30
2023-03-17T14:31:27.344Z,1.63
2023-03-17T14:34:14.710Z,1.40
2023-03-17T14:37:04.296Z,1.40
2023-03-17T14:39:53.868Z,1.47
2023-03-17T14:42:40.250Z,1.37
2023-03-17T14:45:30.969Z,1.30
2023-03-17T14:48:26.835Z,1.30
2023-03-17T14:51:37.980Z,1.17
2023-03-17T14:54:33.565Z,1.33
2023-03-17T14:57:30.215Z,1.90
2023-03-17T15:00:22.644Z,1.30
2023-03-17T15:03:21.227Z,1.60
2023-03-17T15:06:26.571Z,1.50
2023-03-17T15:09:35.396Z,1.50
2023-03-17T15:12:23.744Z,1.80
2023-03-17T15:15:24.194Z,1.37
2023-03-17T15:18:14.289Z,1.90
2023-03-17T15:21:01.095Z,1.53
2023-03-17T15:23:48.704Z,1.50
2023-03-17T15:26:37.177Z,1.60
2023-03-17T15:29:23.544Z,1.70
2023-03-17T15:32:16.187Z,2.20
2023-03-17T15:35:03.238Z,2.33
2023-03-17T15:37:49.689Z,2.70
2023-03-17T15:40:35.930Z,2.50
2023-03-17T15:43:22.855Z,2.93
2023-03-17T15:46:24.261Z,2.83
2023-03-17T15:49:11.498Z,4.67
2023-03-17T15:51:58.082Z,3.43
2023-03-17T15:54:44.662Z,3.33
2023-03-17T15:57:31.256Z,2.10
2023-03-17T16:00:22.772Z,1.80
2023-03-17T16:03:28.056Z,1.57
2023-03-17T16:06:20.915Z,2.37
2023-03-17T16:09:14.802Z,2.33
2023-03-17T16:12:02.144Z,1.90
2023-03-17T16:14:48.995Z,2.07
2023-03-17T16:17:35.648Z,1.60
2023-03-17T16:20:34.304Z,1.70
2023-03-17T16:23:24.101Z,3.47
2023-03-17T16:26:15.968Z,2.50
2023-03-17T16:29:11.878Z,1.90
2023-03-17T16:31:58.095Z,1.90
2023-03-17T16:34:44.732Z,1.90
2023-03-17T16:37:30.958Z,1.80
2023-03-17T16:40:28.912Z,2.00
2023-03-17T16:43:25.209Z,6.83
2023-03-17T16:46:12.643Z,3.90
2023-03-17T16:48:58.867Z,5.30
2023-03-17T16:51:45.952Z,4.47
2023-03-17T16:54:33.419Z,4.07
2023-03-17T16:57:19.869Z,2.80
2023-03-17T17:00:07.997Z,4.23
2023-03-17T17:02:54.962Z,4.87
2023-03-17T17:05:42.343Z,4.73
2023-03-17T17:08:28.978Z,4.33
2023-03-17T17:11:17.449Z,4.40
2023-03-17T17:14:03.843Z,3.60
2023-03-17T17:16:50.454Z,4.20
2023-03-17T17:19:36.786Z,5.43
2023-03-17T17:22:23.377Z,7.03
2023-03-17T17:25:10.389Z,4.40
2023-03-17T17:27:57.434Z,3.70
2023-03-17T17:30:47.768Z,2.70
2023-03-17T17:33:35.235Z,2.50
2023-03-17T17:36:21.420Z,2.30
2023-03-17T17:39:10.429Z,2.20
2023-03-17T17:41:56.992Z,4.57
2023-03-17T17:44:43.520Z,3.90
2023-03-17T17:47:32.928Z,3.33
2023-03-17T17:50:24.367Z,3.40
2023-03-17T17:53:12.293Z,3.40
2023-03-17T17:55:59.040Z,4.13
2023-03-17T17:58:45.918Z,6.10
2023-03-17T18:01:32.188Z,5.93
2023-03-17T18:04:19.108Z,5.43
2023-03-17T18:07:05.945Z,9.47
2023-03-17T18:09:52.919Z,10.60
2023-03-17T18:12:39.440Z,3.83
2023-03-17T18:15:26.619Z,3.63
2023-03-17T18:18:13.275Z,4.93
2023-03-17T18:20:59.860Z,4.30
2023-03-17T18:23:49.959Z,4.90
2023-03-17T18:26:36.922Z,4.30
2023-03-17T18:29:23.458Z,3.63
2023-03-17T18:32:12.674Z,4.30
2023-03-17T18:35:05.123Z,5.73
2023-03-17T18:37:51.911Z,4.53
2023-03-17T18:40:38.441Z,4.27
2023-03-17T18:43:24.804Z,4.47
2023-03-17T18:46:12.859Z,4.40
2023-03-17T18:48:59.564Z,4.17
2023-03-17T18:51:46.058Z,4.57
2023-03-17T18:54:32.990Z,4.60
2023-03-17T18:57:19.058Z,4.67
2023-03-17T19:00:08.681Z,8.47
2023-03-17T19:02:55.476Z,6.60
2023-03-17T19:05:42.232Z,5.47
2023-03-17T19:08:28.740Z,4.33
2023-03-17T19:11:18.144Z,5.33
2023-03-17T19:14:05.590Z,5.23
2023-03-17T19:16:52.022Z,4.97
2023-03-17T19:19:38.817Z,4.77
2023-03-17T19:22:25.866Z,5.00
2023-03-17T19:25:12.778Z,4.87
2023-03-17T19:27:59.576Z,4.97
2023-03-17T19:30:47.022Z,5.00
2023-03-17T19:33:33.623Z,4.63
2023-03-17T19:36:20.236Z,5.00
2023-03-17T19:39:10.811Z,5.53
2023-03-17T19:41:59.044Z,5.10
2023-03-17T19:44:45.565Z,5.43
2023-03-17T19:47:32.094Z,4.93
2023-03-17T19:50:18.897Z,4.87
2023-03-17T19:53:05.571Z,4.60
2023-03-17T19:55:51.910Z,5.40
2023-03-17T19:58:38.289Z,5.53
2023-03-17T20:01:24.967Z,6.40
2023-03-17T20:04:14.091Z,4.47
2023-03-17T20:07:00.578Z,5.23
2023-03-17T20:09:48.487Z,4.67
2023-03-17T20:12:37.982Z,4.43
2023-03-17T20:15:25.046Z,5.83
2023-03-17T20:18:11.316Z,5.77
2023-03-17T20:20:58.662Z,5.00
2023-03-17T20:23:45.292Z,4.97
2023-03-17T20:26:32.357Z,4.83
2023-03-17T20:29:19.844Z,5.20
2023-03-17T20:32:06.385Z,5.80
2023-03-17T20:34:52.674Z,6.33
2023-03-17T20:37:39.535Z,6.27
2023-03-17T20:40:26.583Z,6.10
2023-03-17T20:43:12.998Z,6.50
2023-03-17T20:45:59.325Z,7.27
2023-03-17T20:48:51.648Z,6.77
2023-03-17T20:51:39.330Z,6.00
2023-03-17T20:54:25.786Z,6.10
2023-03-17T20:57:16.237Z,5.50
2023-03-17T21:00:04.502Z,6.07
2023-03-17T21:02:51.087Z,7.37
2023-03-17T21:05:37.332Z,6.30
2023-03-17T21:08:25.765Z,7.23
2023-03-17T21:11:19.131Z,6.93
2023-03-17T21:14:07.999Z,6.07
2023-03-17T21:16:54.995Z,4.97
2023-03-17T21:19:41.721Z,6.20
2023-03-17T21:22:29.922Z,5.47
2023-03-17T21:25:16.157Z,4.80
2023-03-17T21:28:06.385Z,5.40
2023-03-17T21:30:52.958Z,5.50
2023-03-17T21:33:39.751Z,4.93
2023-03-17T21:36:26.657Z,4.97
2023-03-17T21:39:13.515Z,4.50
2023-03-17T21:42:01.281Z,5.03
2023-03-17T21:44:48.342Z,4.80
2023-03-17T21:47:36.271Z,5.10
2023-03-17T21:50:23.108Z,4.93
2023-03-17T21:53:13.674Z,4.17
2023-03-17T21:56:00.150Z,4.50
2023-03-17T21:58:48.775Z,4.40
2023-03-17T22:01:35.908Z,7.50
2023-03-17T22:04:22.487Z,5.67
2023-03-17T22:07:12.014Z,4.60
2023-03-17T22:09:58.211Z,5.83
2023-03-17T22:12:44.597Z,5.97
2023-03-17T22:15:31.082Z,6.23
2023-03-17T22:18:17.920Z,5.63
2023-03-17T22:21:06.132Z,6.00
2023-03-17T22:23:53.017Z,6.37
2023-03-17T22:26:39.322Z,6.03
2023-03-17T22:29:26.413Z,5.83
2023-03-17T22:32:13.452Z,6.60
2023-03-17T22:35:00.127Z,5.60
2023-03-17T22:37:47.346Z,5.33
2023-03-17T22:40:34.684Z,6.50
2023-03-17T22:43:20.971Z,6.23
2023-03-17T22:46:07.612Z,5.90
2023-03-17T22:48:54.329Z,6.27
2023-03-17T22:51:43.392Z,6.10
2023-03-17T22:54:29.789Z,5.80
2023-03-17T22:57:16.151Z,6.30
2023-03-17T23:00:09.325Z,6.30
2023-03-17T23:02:56.149Z,5.60
2023-03-17T23:05:51.916Z,5.77
2023-03-17T23:08:40.360Z,5.93
2023-03-17T23:11:27.974Z,5.70
2023-03-17T23:14:14.299Z,6.17
2023-03-17T23:17:00.967Z,7.23
2023-03-17T23:19:47.170Z,6.47
2023-03-17T23:22:33.986Z,5.63
2023-03-17T23:25:21.461Z,6.60
2023-03-17T23:28:08.352Z,6.67
2023-03-17T23:30:55.329Z,6.03
2023-03-17T23:33:42.699Z,6.10
2023-03-17T23:36:29.462Z,5.37
2023-03-17T23:39:16.335Z,5.90
2023-03-17T23:42:04.001Z,5.00
2023-03-17T23:44:50.527Z,5.53
2023-03-17T23:47:38.139Z,6.27
2023-03-17T23:50:24.525Z,6.43
2023-03-17T23:53:11.578Z,6.20
2023-03-17T23:55:59.213Z,6.13
2023-03-17T23:58:46.659Z,6.30
